KCMX/CMX METAR and TAF weather

Enter ICAO airport designator
Station Type Date Time Source
KCMX METAR 2022/11/27 08:53 UTC NOAA

KCMX 270853Z AUTO 34009KT 10SM CLR 02/M02 A2971 RMK AO2 SLP068 T00221017 53008


Station Type Date Time Source
KCMX Decoded METAR 2022/11/27 08:53 UTC NOAA

HANCOCK HOUGHTON CTY. MEMO, MI, United States (KCMX) 47-10N 088-29W 326M
Nov 27, 2022 - 03:53 AM EST / 2022.11.27 0853 UTC
Wind: from the NNW (340 degrees) at 10 MPH (9 KT):0
Visibility: 10 mile(s):0
Sky conditions: clear
Temperature: 36.0 F (2.2 C)
Dew Point: 28.9 F (-1.7 C)
Relative Humidity: 75%
Pressure (altimeter): 29.71 in. Hg (1006 hPa)
Pressure tendency: 0.02 inches (0.8 hPa) higher than three hours ago
ob: KCMX 270853Z AUTO 34009KT 10SM CLR 02/M02 A2971 RMK AO2 SLP068 T00221017 53008
cycle: 9

Station Type Date Time Source
KCMX TAF 2022/11/27 08:21 UTC NOAA

TAF
AMD KCMX 270817Z 2708/2806 35014KT P6SM SKC
FM271000 35009KT P6SM BKN045
FM271100 36008KT P6SM BKN030
FM271200 36008KT P6SM BKN016

Example: see airport list